| Date | Time | Temp. (oF) | Dew Point (oF) | Rel. Hum. (%) | Press. (in.) | Wind Dir. | Wind Speed (mph) | Hourly Rainfall (in.) |
|
|---|---|---|---|---|---|---|---|---|---|
| 1 | 06/20 | 00:00 | 66 | 62 | 89 | 30.42 | SE | 1 | 0.00 |
| 2 | 06/19 | 23:00 | 66 | 62 | 88 | 30.41 | ESE | 1 | 0.00 |
| 3 | 06/19 | 22:00 | 67 | 62 | 86 | 30.41 | ESE | 5 | 0.00 |
| 4 | 06/19 | 21:00 | 70 | 64 | 82 | 30.38 | SE | 5 | 0.00 |
| 5 | 06/19 | 20:00 | 74 | 66 | 77 | 30.35 | ESE | 4 | 0.00 |
| 6 | 06/19 | 19:00 | 76 | 63 | 65 | 30.33 | N | 2 | 0.00 |
| 7 | 06/19 | 18:00 | 78 | 62 | 59 | 30.32 | NNE | 4 | 0.00 |
| 8 | 06/19 | 17:00 | 80 | 63 | 58 | 30.32 | S | 6 | 0.00 |
| 9 | 06/19 | 16:00 | 81 | 64 | 58 | 30.33 | WNW | 2 | 0.00 |
| 10 | 06/19 | 15:00 | 80 | 62 | 56 | 30.33 | SSW | 4 | 0.00 |
| 11 | 06/19 | 14:00 | 78 | 65 | 65 | 30.34 | ESE | 4 | 0.00 |
| 12 | 06/19 | 13:00 | 78 | 63 | 62 | 30.34 | ESE | 5 | 0.00 |
| 13 | 06/19 | 12:00 | 76 | 63 | 66 | 30.35 | S | 4 | 0.00 |
| 14 | 06/19 | 11:00 | 74 | 63 | 71 | 30.34 | E | 6 | 0.00 |
| 15 | 06/19 | 10:00 | 70 | 64 | 82 | 30.34 | SE | 5 | 0.00 |
| 16 | 06/19 | 09:00 | 64 | 63 | 100 | 30.35 | SSE | 4 | 0.00 |
| 17 | 06/19 | 08:00 | 60 | 59 | 100 | 30.35 | S | 1 | 0.00 |
| 18 | 06/19 | 07:00 | 59 | 59 | 100 | 30.33 | E | 1 | 0.00 |
| 19 | 06/19 | 06:00 | 58 | 58 | 100 | 30.31 | N | 1 | 0.00 |
| 20 | 06/19 | 05:00 | 58 | 58 | 100 | 30.29 | N | 3 | 0.00 |
| 21 | 06/19 | 04:00 | 58 | 58 | 100 | 30.27 | N | 1 | 0.00 |
| 22 | 06/19 | 03:00 | 59 | 59 | 100 | 30.25 | SE | 1 | 0.00 |
| 23 | 06/19 | 02:00 | 60 | 59 | 99 | 30.26 | N | 0 | 0.00 |
| 24 | 06/19 | 01:00 | 61 | 60 | 98 | 30.25 | NNW | 0 | 0.00 |